Time;durP1;ratioP1;P1;durP2;ratioP2;P2;SDS_P1;SDS_P2;PMS_P1;PMS_P2;Temp;Humidity;BMP_temperature;BMP_pressure;BME280_temperature;BME280_humidity;BME280_pressure;Samples;Min_cycle;Max_cycle;Signal;HPM_P1;HPM_P2
2022/01/31 00:00:55;;;;;;;27.55;8.80;;;;;;;2.11;100.00;100987.81;5027737;28;20191;-81
2022/01/31 00:03:22;;;;;;;36.92;9.32;;;;;;;1.66;100.00;100914.47;5012163;28;20034;-79
2022/01/31 00:05:48;;;;;;;30.27;8.88;;;;;;;1.25;100.00;100836.63;5042828;28;20096;-78
2022/01/31 00:08:21;;;;;;;28.98;9.10;;;;;;;1.54;100.00;100869.03;5024957;28;20503;-79
2022/01/31 00:10:48;;;;;;;33.05;9.45;;;;;;;1.10;100.00;100811.31;5026261;28;20021;-78
2022/01/31 00:13:20;;;;;;;27.52;8.85;;;;;;;2.09;100.00;100946.25;5007372;28;20040;-78
2022/01/31 00:15:53;;;;;;;28.50;9.70;;;;;;;2.06;100.00;100942.00;5025534;28;20018;-79
2022/01/31 00:18:18;;;;;;;36.22;8.80;;;;;;;1.61;100.00;100883.44;5010207;28;20026;-79
2022/01/31 00:20:44;;;;;;;40.90;9.75;;;;;;;1.46;100.00;100850.34;5014291;28;20033;-79
2022/01/31 00:23:10;;;;;;;34.58;8.52;;;;;;;2.02;100.00;100937.00;5011952;28;20101;-80
2022/01/31 00:25:35;;;;;;;22.25;8.05;;;;;;;1.95;100.00;100891.34;5033300;28;20068;-80
2022/01/31 00:28:03;;;;;;;29.33;8.15;;;;;;;2.02;100.00;100891.00;5011872;28;20136;-79
2022/01/31 00:30:29;;;;;;;24.52;6.90;;;;;;;1.91;100.00;100851.63;5032309;28;20029;-79
2022/01/31 00:32:54;;;;;;;31.10;7.35;;;;;;;1.61;100.00;100801.91;5027852;28;20041;-79
2022/01/31 00:35:20;;;;;;;30.52;6.88;;;;;;;2.03;100.00;100881.41;5018792;28;20057;-79
2022/01/31 00:37:46;;;;;;;31.50;7.13;;;;;;;1.99;100.00;100885.91;5032187;28;20034;-79
2022/01/31 00:40:12;;;;;;;27.33;7.15;;;;;;;1.98;100.00;100868.63;5018137;28;20032;-78
2022/01/31 00:42:39;;;;;;;24.30;6.28;;;;;;;2.04;100.00;100849.22;5016502;28;20040;-78
2022/01/31 00:45:13;;;;;;;30.73;6.22;;;;;;;0.85;100.00;100650.47;5015865;28;20098;-81
2022/01/31 00:47:43;;;;;;;17.85;5.18;;;;;;;1.87;100.00;100798.84;5030501;28;20033;-79
2022/01/31 00:50:11;;;;;;;20.83;4.28;;;;;;;1.36;100.00;100679.97;5020832;28;20025;-80
2022/01/31 00:52:40;;;;;;;25.05;4.55;;;;;;;2.14;100.00;100784.50;5017235;28;20029;-79
2022/01/31 00:55:11;;;;;;;16.98;4.05;;;;;;;1.45;100.00;100662.16;5031614;28;20033;-79
2022/01/31 00:57:36;;;;;;;22.27;4.45;;;;;;;1.42;100.00;100648.44;5036975;28;20119;-79
2022/01/31 01:00:04;;;;;;;20.50;3.72;;;;;;;1.54;100.00;100665.19;5050864;28;20359;-80
2022/01/31 01:02:32;;;;;;;26.10;3.75;;;;;;;1.91;100.00;100721.41;5031850;28;20026;-79
2022/01/31 01:04:58;;;;;;;28.90;3.78;;;;;;;1.60;100.00;100629.28;5034835;28;20052;-80
2022/01/31 01:07:25;;;;;;;17.35;3.95;;;;;;;1.93;100.00;100658.81;5017210;28;20067;-81
2022/01/31 01:09:53;;;;;;;22.02;4.57;;;;;;;1.49;100.00;100579.56;5033312;28;20025;-80
2022/01/31 01:12:19;;;;;;;22.58;4.47;;;;;;;1.85;100.00;100660.06;5034408;28;20021;-80
2022/01/31 01:14:46;;;;;;;18.60;4.65;;;;;;;2.34;100.00;100718.28;5021910;28;20009;-80
2022/01/31 01:17:12;;;;;;;19.05;3.55;;;;;;;1.29;100.00;100512.13;5049824;28;20040;-80
2022/01/31 01:19:37;;;;;;;20.60;3.58;;;;;;;1.75;100.00;100567.78;5011272;28;20029;-80
2022/01/31 01:22:04;;;;;;;16.67;2.58;;;;;;;2.71;100.00;100681.44;5012990;28;20025;-80
2022/01/31 01:24:31;;;;;;;18.23;2.97;;;;;;;2.81;100.00;100680.94;5010629;28;20126;-80
2022/01/31 01:26:57;;;;;;;18.05;3.45;;;;;;;2.43;100.00;100611.78;5028188;28;20056;-79
2022/01/31 01:29:23;;;;;;;21.63;3.03;;;;;;;2.18;100.00;100546.31;5028241;28;20032;-79
2022/01/31 01:31:50;;;;;;;22.70;3.40;;;;;;;2.44;100.00;100573.53;5024806;28;20029;-80
2022/01/31 01:34:17;;;;;;;21.17;3.45;;;;;;;2.36;100.00;100539.22;5025826;28;20021;-79
2022/01/31 01:36:44;;;;;;;22.67;3.35;;;;;;;2.54;100.00;100558.19;5010737;28;20361;-79
2022/01/31 01:39:10;;;;;;;19.63;3.40;;;;;;;2.06;100.00;100478.34;5028668;28;20029;-78
2022/01/31 01:41:36;;;;;;;19.65;4.07;;;;;;;3.16;100.00;100631.97;5027188;28;20068;-79
2022/01/31 01:44:02;;;;;;;26.08;3.80;;;;;;;3.12;100.00;100583.50;5043491;28;20025;-77
2022/01/31 01:46:28;;;;;;;26.20;4.05;;;;;;;3.48;100.00;100632.66;5040963;28;20021;-78
2022/01/31 01:48:54;;;;;;;25.02;3.92;;;;;;;2.98;100.00;100523.47;5042419;28;20588;-78
2022/01/31 01:51:22;;;;;;;22.67;4.35;;;;;;;3.55;100.00;100646.19;5013470;28;20048;-77
2022/01/31 01:53:49;;;;;;;22.70;3.50;;;;;;;3.69;100.00;100604.38;5029802;28;20021;-77
2022/01/31 01:56:37;;;;;;;23.05;3.42;;;;;;;3.21;100.00;100514.25;5031396;28;20022;-78
2022/01/31 01:59:25;;;;;;;26.48;4.10;;;;;;;3.81;100.00;100605.41;5027647;28;20081;-78
2022/01/31 02:02:11;;;;;;;25.63;3.75;;;;;;;3.92;100.00;100608.19;5043390;28;20033;-78
2022/01/31 02:05:05;;;;;;;31.92;4.72;;;;;;;2.82;100.00;100406.22;5024705;28;20041;-79
2022/01/31 02:07:32;;;;;;;24.85;3.80;;;;;;;3.47;100.00;100494.38;5043797;28;20068;-78
2022/01/31 02:10:01;;;;;;;25.33;3.75;;;;;;;3.06;100.00;100420.31;5025940;28;20026;-78
2022/01/31 02:12:41;;;;;;;25.30;3.70;;;;;;;3.44;100.00;100471.09;5008163;28;20026;-78
2022/01/31 02:15:14;;;;;;;29.13;3.47;;;;;;;4.01;100.00;100553.69;5028705;28;20081;-78
2022/01/31 02:17:40;;;;;;;24.17;3.72;;;;;;;3.86;100.00;100529.38;5013273;28;20060;-78
2022/01/31 02:20:10;;;;;;;19.65;3.50;;;;;;;3.82;100.00;100507.00;5025742;28;20420;-78
2022/01/31 02:22:36;;;;;;;19.67;3.60;;;;;;;4.04;100.00;100540.44;5014419;28;20026;-77
2022/01/31 02:25:03;;;;;;;20.85;3.33;;;;;;;4.04;100.00;100537.81;5024839;28;20072;-77
2022/01/31 02:27:36;;;;;;;18.55;3.33;;;;;;;4.10;100.00;100555.72;5043209;28;20032;-77
2022/01/31 02:30:07;;;;;;;20.85;3.03;;;;;;;4.06;100.00;100541.16;5044577;28;20034;-77
2022/01/31 02:32:34;;;;;;;18.40;2.85;;;;;;;3.81;100.00;100481.81;5049735;28;20033;-77
2022/01/31 02:35:00;;;;;;;27.58;3.50;;;;;;;4.11;100.00;100518.19;5032802;28;20039;-77
2022/01/31 02:37:26;;;;;;;18.15;3.03;;;;;;;4.07;100.00;100535.84;5044145;28;20021;-78
2022/01/31 02:39:51;;;;;;;20.20;3.22;;;;;;;4.16;100.00;100519.59;5020422;28;20021;-78
2022/01/31 02:44:58;;;;;;;22.60;2.75;;;;;;;4.07;100.00;100470.53;5274220;23;20058;-73
2022/01/31 02:47:27;;;;;;;23.92;3.40;;;;;;;3.94;100.00;100469.66;5004479;28;20034;-72
2022/01/31 02:49:59;;;;;;;20.38;3.22;;;;;;;4.20;100.00;100514.97;5024549;28;20030;-72
2022/01/31 02:52:28;;;;;;;22.10;3.13;;;;;;;4.25;100.00;100504.25;4985651;28;20053;-74
2022/01/31 02:54:54;;;;;;;23.45;3.10;;;;;;;3.99;100.00;100478.00;5004396;28;20018;-73
2022/01/31 02:57:19;;;;;;;25.70;3.28;;;;;;;4.10;100.00;100490.41;4988730;28;20041;-72
2022/01/31 02:59:45;;;;;;;21.85;2.97;;;;;;;4.19;100.00;100503.69;5006553;28;20136;-72
2022/01/31 03:02:11;;;;;;;21.88;3.33;;;;;;;4.20;100.00;100522.81;5005388;28;20153;-71
2022/01/31 03:04:37;;;;;;;24.92;3.05;;;;;;;4.01;100.00;100464.88;5005706;28;20034;-73
2022/01/31 03:07:03;;;;;;;22.65;3.08;;;;;;;4.33;100.00;100496.72;5005093;28;20044;-72
2022/01/31 03:09:29;;;;;;;18.38;3.15;;;;;;;4.26;100.00;100479.78;5005826;28;20042;-73
2022/01/31 03:11:54;;;;;;;22.42;3.03;;;;;;;4.04;100.00;100448.97;4993067;28;20029;-73
2022/01/31 03:14:21;;;;;;;20.20;2.90;;;;;;;3.96;100.00;100452.94;5026724;28;20029;-73
2022/01/31 03:16:47;;;;;;;22.38;3.08;;;;;;;3.82;100.00;100434.72;4988528;28;20022;-72
2022/01/31 03:19:15;;;;;;;21.83;2.97;;;;;;;4.03;100.00;100444.69;5005745;28;20037;-73
2022/01/31 03:21:41;;;;;;;20.65;3.03;;;;;;;4.10;100.00;100444.19;4988438;28;20132;-73
2022/01/31 03:24:07;;;;;;;23.27;3.33;;;;;;;4.25;100.00;100459.81;5020782;28;20030;-73
2022/01/31 03:26:33;;;;;;;20.73;2.70;;;;;;;4.16;100.00;100453.41;5005527;28;20026;-73
2022/01/31 03:28:59;;;;;;;29.75;3.75;;;;;;;3.93;100.00;100424.41;5002732;28;20014;-73
2022/01/31 03:31:25;;;;;;;15.63;2.90;;;;;;;4.30;100.00;100439.44;5021008;28;20030;-74
2022/01/31 03:33:53;;;;;;;20.45;3.15;;;;;;;4.29;100.00;100442.97;5004446;28;20022;-72
2022/01/31 03:36:19;;;;;;;28.25;3.38;;;;;;;4.05;100.00;100424.53;5000979;28;20091;-72
2022/01/31 03:38:46;;;;;;;22.10;4.60;;;;;;;4.18;100.00;100420.19;5001479;28;20029;-73
2022/01/31 03:41:15;;;;;;;26.42;3.40;;;;;;;4.28;100.00;100444.75;5000862;28;20480;-73
2022/01/31 03:43:41;;;;;;;22.23;2.92;;;;;;;4.16;100.00;100401.16;5016551;28;20081;-73
2022/01/31 03:46:07;;;;;;;21.48;3.03;;;;;;;4.27;100.00;100442.22;5000654;28;20125;-72
2022/01/31 03:48:33;;;;;;;18.23;2.95;;;;;;;4.27;100.00;100421.31;5002942;28;20061;-73
2022/01/31 03:51:03;;;;;;;20.15;3.13;;;;;;;4.18;100.00;100410.56;5002078;28;20217;-72
2022/01/31 03:53:30;;;;;;;26.30;3.15;;;;;;;4.33;100.00;100400.84;5001339;28;20044;-73
2022/01/31 03:55:56;;;;;;;22.52;3.15;;;;;;;3.96;100.00;100364.09;4987694;28;20041;-73
2022/01/31 03:58:21;;;;;;;20.20;3.45;;;;;;;4.11;100.00;100417.13;4987250;28;20026;-73
2022/01/31 04:00:47;;;;;;;25.08;3.58;;;;;;;4.12;100.00;100389.22;5004020;28;20113;-73
2022/01/31 04:03:14;;;;;;;21.58;3.13;;;;;;;4.18;100.00;100407.13;5019955;28;20040;-73
2022/01/31 04:05:40;;;;;;;23.55;3.17;;;;;;;4.23;100.00;100398.97;4988003;28;20026;-74
2022/01/31 04:08:09;;;;;;;26.80;3.60;;;;;;;4.31;100.00;100423.63;5003981;28;20022;-74
2022/01/31 04:10:36;;;;;;;23.35;2.78;;;;;;;4.36;100.00;100405.03;5000734;28;20037;-73
2022/01/31 04:13:03;;;;;;;22.75;3.70;;;;;;;4.31;100.00;100383.59;4999826;28;20428;-73
2022/01/31 04:15:29;;;;;;;19.83;3.40;;;;;;;4.17;100.00;100376.69;4984247;28;20430;-73
2022/01/31 04:17:54;;;;;;;27.58;3.17;;;;;;;4.13;100.00;100377.81;4998530;28;20022;-72
2022/01/31 04:20:20;;;;;;;21.33;3.40;;;;;;;4.38;100.00;100396.16;4998172;28;20022;-72
2022/01/31 04:23:00;;;;;;;25.95;3.50;;;;;;;4.26;100.00;100365.59;4982047;28;20037;-72
2022/01/31 04:25:42;;;;;;;22.10;3.47;;;;;;;4.32;100.00;100390.50;4998193;28;20022;-72
2022/01/31 04:28:21;;;;;;;32.35;3.83;;;;;;;4.29;100.00;100370.66;4997820;28;20021;-72
2022/01/31 04:30:56;;;;;;;31.10;3.88;;;;;;;4.28;100.00;100355.06;4982562;28;20018;-72
2022/01/31 04:33:23;;;;;;;35.85;3.92;;;;;;;4.40;100.00;100364.66;5036233;23;20250;-73
2022/01/31 04:35:49;;;;;;;28.08;3.90;;;;;;;4.12;100.00;100337.78;5023130;28;20051;-73
2022/01/31 04:38:19;;;;;;;27.25;3.88;;;;;;;4.28;100.00;100395.09;5024527;28;20040;-73
2022/01/31 04:40:45;;;;;;;19.13;3.20;;;;;;;3.98;100.00;100409.25;5059733;28;20099;-72
2022/01/31 04:43:10;;;;;;;18.88;2.47;;;;;;;3.63;100.00;100390.66;5024418;28;20048;-73
2022/01/31 04:45:37;;;;;;;14.85;2.33;;;;;;;3.57;100.00;100405.91;5039207;28;20438;-73
2022/01/31 04:48:02;;;;;;;15.93;2.30;;;;;;;3.41;100.00;100411.25;5057903;28;20098;-73
2022/01/31 04:50:28;;;;;;;13.27;2.10;;;;;;;3.55;100.00;100413.81;5056316;28;20029;-74
2022/01/31 04:52:53;;;;;;;19.55;2.53;;;;;;;3.51;100.00;100410.56;5055993;28;20074;-73
2022/01/31 04:55:19;;;;;;;17.48;2.88;;;;;;;3.30;100.00;100357.13;5020813;28;20036;-73
2022/01/31 04:57:45;;;;;;;26.58;3.33;;;;;;;3.36;100.00;100388.03;5036984;28;20027;-73
2022/01/31 05:00:11;;;;;;;21.52;2.70;;;;;;;3.16;100.00;100351.91;5020154;28;20459;-72
2022/01/31 05:02:37;;;;;;;29.35;3.20;;;;;;;3.28;100.00;100348.56;5036572;28;20021;-72
2022/01/31 05:05:04;;;;;;;20.05;2.83;;;;;;;3.46;100.00;100354.38;5036429;28;20048;-72
2022/01/31 05:07:29;;;;;;;25.20;3.03;;;;;;;3.53;100.00;100359.09;5020561;28;20025;-72
2022/01/31 05:09:55;;;;;;;30.15;2.42;;;;;;;3.15;100.00;100314.56;5036501;28;20040;-73
2022/01/31 05:12:21;;;;;;;19.80;2.85;;;;;;;3.27;100.00;100334.66;5020175;28;20487;-74
2022/01/31 05:14:47;;;;;;;32.25;3.08;;;;;;;3.41;100.00;100362.50;5037741;28;20048;-72
2022/01/31 05:17:12;;;;;;;21.95;2.85;;;;;;;3.53;100.00;100394.81;5036206;28;20475;-72
2022/01/31 05:19:38;;;;;;;25.90;3.30;;;;;;;3.48;100.00;100381.22;5036685;28;20360;-72
2022/01/31 05:22:04;;;;;;;21.92;3.08;;;;;;;3.23;100.00;100355.84;5036824;28;20029;-72
2022/01/31 05:24:29;;;;;;;24.92;3.83;;;;;;;3.23;100.00;100337.56;5036604;28;20467;-73
2022/01/31 05:26:55;;;;;;;21.88;2.97;;;;;;;3.17;100.00;100322.31;5036487;28;20021;-74
2022/01/31 05:29:22;;;;;;;32.88;3.45;;;;;;;3.21;100.00;100329.00;5037175;28;20044;-73
2022/01/31 05:31:48;;;;;;;24.38;3.42;;;;;;;3.55;100.00;100365.03;5054324;28;20037;-72
2022/01/31 05:34:15;;;;;;;25.00;3.63;;;;;;;3.46;100.00;100365.63;5035853;28;20037;-72
2022/01/31 05:36:41;;;;;;;32.78;3.65;;;;;;;3.47;100.00;100382.97;5035966;28;20021;-72
2022/01/31 05:39:08;;;;;;;25.08;3.78;;;;;;;3.34;100.00;100358.59;5016281;28;20030;-72
2022/01/31 05:41:35;;;;;;;26.30;3.72;;;;;;;3.22;100.00;100354.16;5015957;28;20030;-73
2022/01/31 05:44:02;;;;;;;22.02;3.03;;;;;;;3.10;100.00;100343.56;5023127;28;20033;-72
2022/01/31 05:46:27;;;;;;;20.23;2.83;;;;;;;3.11;100.00;100332.19;5038758;28;20425;-74
2022/01/31 05:48:53;;;;;;;24.85;3.53;;;;;;;3.29;100.00;100361.50;5037958;28;20028;-72
2022/01/31 05:51:21;;;;;;;23.15;3.53;;;;;;;3.04;100.00;100309.19;5057335;28;20104;-71
2022/01/31 05:53:49;;;;;;;30.25;3.92;;;;;;;3.37;100.00;100368.00;5069171;28;20012;-73
2022/01/31 05:56:17;;;;;;;31.60;3.75;;;;;;;3.17;100.00;100320.53;5052703;28;20036;-72
2022/01/31 05:58:43;;;;;;;27.35;3.10;;;;;;;3.15;100.00;100338.03;5019001;28;20172;-73
2022/01/31 06:01:08;;;;;;;20.33;3.22;;;;;;;3.48;100.00;100358.56;5063148;28;20028;-75
2022/01/31 06:03:35;;;;;;;41.75;9.60;;;;;;;3.32;100.00;100335.22;5036595;28;20112;-73
2022/01/31 06:06:01;;;;;;;25.50;3.92;;;;;;;3.46;100.00;100356.97;5042012;28;20380;-74
2022/01/31 06:08:28;;;;;;;24.00;3.17;;;;;;;3.43;100.00;100341.50;5045492;28;20021;-74
2022/01/31 06:10:54;;;;;;;29.00;3.45;;;;;;;3.29;100.00;100311.06;5024257;28;20090;-73
2022/01/31 06:13:28;;;;;;;23.30;3.50;;;;;;;3.44;100.00;100353.63;5053346;28;20391;-73
2022/01/31 06:15:54;;;;;;;22.40;3.70;;;;;;;3.55;100.00;100353.78;5049069;28;20040;-73
2022/01/31 06:18:20;;;;;;;29.02;3.67;;;;;;;3.41;100.00;100331.16;5040002;28;20025;-73
2022/01/31 06:20:46;;;;;;;21.55;2.92;;;;;;;3.41;100.00;100336.38;5041765;28;20045;-73
2022/01/31 06:23:12;;;;;;;70.57;19.60;;;;;;;3.36;100.00;100343.66;5021895;28;20044;-72
2022/01/31 06:25:39;;;;;;;110.50;39.10;;;;;;;3.21;100.00;100288.09;5048942;28;20110;-78
2022/01/31 06:28:06;;;;;;;26.15;3.70;;;;;;;3.28;100.00;100312.00;5035508;28;20443;-73
2022/01/31 06:30:33;;;;;;;28.15;5.32;;;;;;;3.36;100.00;100346.28;5041083;28;20045;-74
2022/01/31 06:32:59;;;;;;;22.63;3.97;;;;;;;3.43;100.00;100363.25;5012617;28;20159;-75
2022/01/31 06:35:27;;;;;;;24.88;3.80;;;;;;;3.34;100.00;100343.78;5040411;28;20459;-74
2022/01/31 06:37:53;;;;;;;20.15;4.47;;;;;;;3.49;100.00;100360.22;5030046;28;20083;-73
2022/01/31 06:40:19;;;;;;;27.25;3.80;;;;;;;3.46;100.00;100336.09;5019917;28;20034;-74
2022/01/31 06:42:45;;;;;;;33.25;4.85;;;;;;;3.49;100.00;100351.53;5031860;28;20267;-74
2022/01/31 06:45:14;;;;;;;25.50;3.17;;;;;;;3.51;100.00;100347.91;5032292;28;20092;-73
2022/01/31 06:47:40;;;;;;;19.67;3.40;;;;;;;3.44;100.00;100341.41;5002554;28;20029;-72
2022/01/31 06:50:07;;;;;;;30.63;3.83;;;;;;;3.51;100.00;100362.72;5019326;28;20026;-73
2022/01/31 06:52:35;;;;;;;22.63;3.67;;;;;;;3.43;100.00;100350.19;5003002;28;20025;-72
2022/01/31 06:55:04;;;;;;;36.30;4.35;;;;;;;3.58;100.00;100352.72;5020356;28;20348;-74
2022/01/31 06:57:33;;;;;;;30.75;5.93;;;;;;;3.58;100.00;100334.47;5005924;28;20033;-73
2022/01/31 07:00:08;;;;;;;29.63;4.47;;;;;;;3.63;100.00;100348.88;5037557;28;20049;-72
2022/01/31 07:02:34;;;;;;;28.20;4.80;;;;;;;3.69;100.00;100332.81;5018926;28;20087;-72
2022/01/31 07:05:03;;;;;;;28.75;4.63;;;;;;;3.65;100.00;100367.06;5039070;28;20064;-75
2022/01/31 07:07:29;;;;;;;36.75;4.47;;;;;;;3.70;100.00;100352.78;5038206;28;20104;-72
2022/01/31 07:09:56;;;;;;;37.42;6.82;;;;;;;3.66;100.00;100337.41;5019464;28;20025;-72
2022/01/31 07:12:29;;;;;;;31.38;4.88;;;;;;;3.70;100.00;100346.69;5040801;28;20033;-72
2022/01/31 07:14:54;;;;;;;36.20;5.03;;;;;;;3.65;100.00;100333.94;5033933;28;20105;-74
2022/01/31 07:17:21;;;;;;;30.80;5.18;;;;;;;3.50;100.00;100324.53;5039734;28;20100;-71
2022/01/31 07:19:48;;;;;;;26.42;3.55;;;;;;;3.44;100.00;100336.19;5039684;28;20138;-77
2022/01/31 07:22:19;;;;;;;29.17;4.38;;;;;;;3.54;100.00;100345.09;5045405;28;20031;-77
2022/01/31 07:25:01;;;;;;;30.38;3.55;;;;;;;3.36;100.00;100286.25;5044078;28;20049;-76
2022/01/31 07:27:27;;;;;;;28.75;4.50;;;;;;;3.70;100.00;100326.66;5044731;28;20040;-73
2022/01/31 07:29:53;;;;;;;22.20;3.47;;;;;;;3.68;100.00;100330.28;5063601;28;20032;-73
2022/01/31 07:32:19;;;;;;;34.92;4.22;;;;;;;3.71;100.00;100335.34;5037251;28;20115;-73
2022/01/31 07:34:46;;;;;;;35.63;4.82;;;;;;;3.66;100.00;100337.41;5040909;28;20278;-73
2022/01/31 07:37:12;;;;;;;40.22;5.20;;;;;;;3.69;100.00;100374.59;5057993;28;20033;-75
2022/01/31 07:39:41;;;;;;;27.45;3.53;;;;;;;3.59;100.00;100343.94;5046901;28;20026;-79
2022/01/31 07:42:07;;;;;;;229.23;93.32;;;;;;;3.75;100.00;100328.97;5032342;28;20040;-79
2022/01/31 07:44:36;;;;;;;67.65;18.95;;;;;;;3.71;100.00;100356.22;5026499;28;20103;-79
2022/01/31 07:47:04;;;;;;;25.38;5.10;;;;;;;3.46;100.00;100351.75;5011621;28;20057;-75
2022/01/31 07:49:33;;;;;;;33.95;7.32;;;;;;;3.79;100.00;100359.16;5046387;28;20032;-80
2022/01/31 07:51:59;;;;;;;30.98;4.45;;;;;;;3.24;100.00;100292.25;5045672;28;20021;-73
2022/01/31 07:54:26;;;;;;;36.35;4.95;;;;;;;3.61;100.00;100368.19;5041811;28;20028;-73
2022/01/31 07:56:52;;;;;;;27.65;4.55;;;;;;;3.33;100.00;100352.53;5035354;28;20107;-73
2022/01/31 07:59:18;;;;;;;29.42;4.10;;;;;;;3.61;100.00;100397.78;5055131;28;20498;-73
2022/01/31 08:01:44;;;;;;;25.05;3.20;;;;;;;3.66;100.00;100377.41;5020484;28;20032;-74
2022/01/31 08:04:10;;;;;;;35.58;4.10;;;;;;;3.26;100.00;100329.53;5056039;28;20027;-78
2022/01/31 08:06:36;;;;;;;34.83;5.25;;;;;;;3.58;100.00;100397.94;5057223;28;20017;-73
2022/01/31 08:09:04;;;;;;;35.33;6.00;;;;;;;3.49;100.00;100370.66;5037565;28;20048;-74
2022/01/31 08:11:32;;;;;;;30.08;5.53;;;;;;;3.15;100.00;100369.34;5056263;28;20028;-76
2022/01/31 08:14:19;;;;;;;39.50;5.40;;;;;;;3.44;100.00;100421.50;5055907;28;20032;-78
2022/01/31 08:16:45;;;;;;;40.22;4.93;;;;;;;3.22;100.00;100401.13;5055747;28;20056;-71
2022/01/31 08:19:11;;;;;;;37.70;5.35;;;;;;;3.30;100.00;100393.66;5037565;28;20103;-73
2022/01/31 08:21:37;;;;;;;85.93;24.83;;;;;;;3.43;100.00;100391.09;5039357;28;20021;-75
2022/01/31 08:24:04;;;;;;;58.00;12.02;;;;;;;3.24;100.00;100379.22;5036914;28;20557;-78
2022/01/31 08:26:30;;;;;;;35.22;5.13;;;;;;;3.44;100.00;100401.44;5055188;28;20036;-73
2022/01/31 08:29:03;;;;;;;46.05;7.43;;;;;;;3.30;100.00;100380.59;5037721;28;20028;-74
2022/01/31 08:31:34;;;;;;;34.95;4.72;;;;;;;3.35;100.00;100399.41;5015659;28;20028;-73
2022/01/31 08:34:17;;;;;;;50.72;9.95;;;;;;;3.68;100.00;100442.56;5049096;28;20378;-76
2022/01/31 08:36:47;;;;;;;40.53;7.00;;;;;;;3.62;100.00;100417.72;5034451;28;20560;-79
2022/01/31 08:39:19;;;;;;;28.10;4.93;;;;;;;3.42;100.00;100413.75;5010097;28;20030;-74
2022/01/31 08:41:49;;;;;;;32.10;5.25;;;;;;;3.65;100.00;100453.22;5049300;28;20028;-74
2022/01/31 08:44:18;;;;;;;38.83;6.18;;;;;;;3.42;100.00;100420.75;5034767;28;20020;-75
2022/01/31 08:46:45;;;;;;;37.55;7.10;;;;;;;3.59;100.00;100474.50;5036287;28;20036;-75
2022/01/31 08:49:13;;;;;;;41.15;4.78;;;;;;;3.34;100.00;100422.06;5051475;28;20075;-75
2022/01/31 08:51:39;;;;;;;40.58;5.30;;;;;;;3.51;100.00;100457.53;5034001;28;20017;-73
2022/01/31 08:54:06;;;;;;;45.85;4.93;;;;;;;3.23;100.00;100442.78;5050295;28;20494;-74
2022/01/31 08:56:40;;;;;;;29.75;4.90;;;;;;;3.38;100.00;100464.47;5034444;28;20055;-75
2022/01/31 08:59:16;;;;;;;34.35;5.25;;;;;;;3.30;100.00;100511.94;5035695;28;20459;-75
2022/01/31 09:01:52;;;;;;;34.72;5.20;;;;;;;2.93;100.00;100422.88;5037286;28;20390;-74
2022/01/31 09:04:32;;;;;;;45.47;7.28;;;;;;;3.02;100.00;100387.56;5017974;28;20340;-74
2022/01/31 09:06:59;;;;;;;37.53;4.95;;;;;;;3.42;100.00;100489.44;5052237;28;20024;-75
2022/01/31 09:09:28;;;;;;;44.50;6.55;;;;;;;3.09;100.00;100421.94;5049484;28;20076;-74
2022/01/31 09:11:57;;;;;;;34.95;6.35;;;;;;;3.42;100.00;100502.50;5054284;28;20029;-74
2022/01/31 09:14:26;;;;;;;34.92;5.95;;;;;;;3.28;100.00;100460.75;5039116;28;20028;-77
2022/01/31 09:17:01;;;;;;;41.63;5.65;;;;;;;3.12;100.00;100427.78;5023299;28;20028;-76
2022/01/31 09:19:27;;;;;;;45.55;8.13;;;;;;;3.44;100.00;100507.63;5035385;28;20028;-76
2022/01/31 09:21:52;;;;;;;53.33;6.65;;;;;;;3.21;100.00;100478.56;5036391;28;20029;-74
2022/01/31 09:24:18;;;;;;;43.90;6.57;;;;;;;3.36;100.00;100497.66;5034424;28;20787;-75
2022/01/31 09:26:47;;;;;;;60.75;6.65;;;;;;;3.55;100.00;100515.63;5031258;28;20402;-76
2022/01/31 09:29:13;;;;;;;59.45;7.30;;;;;;;3.37;100.00;100496.72;5039836;28;20037;-76
2022/01/31 09:31:41;;;;;;;45.88;6.88;;;;;;;3.62;100.00;100519.53;5037798;28;20032;-74
2022/01/31 09:34:07;;;;;;;44.72;6.30;;;;;;;3.60;100.00;100531.84;5059779;28;20033;-75
2022/01/31 09:36:33;;;;;;;55.78;7.00;;;;;;;3.49;100.00;100519.44;5040909;28;20036;-75
2022/01/31 09:39:48;;;;;;;48.63;6.10;;;;;;;3.65;100.00;100557.69;5013918;28;20706;-75
2022/01/31 09:42:52;;;;;;;49.67;6.85;;;;;;;3.61;100.00;100556.19;5030639;28;20029;-77
2022/01/31 09:53:40;;;;;;;38.33;5.90;;;;;;;3.41;100.00;100507.84;5245020;22;20057;-75
2022/01/31 09:56:10;;;;;;;30.70;5.10;;;;;;;3.24;100.00;100514.91;5041201;28;20154;-74
2022/01/31 09:58:37;;;;;;;54.28;9.30;;;;;;;3.72;100.00;100603.38;5055447;28;20040;-75
2022/01/31 10:01:07;;;;;;;66.13;15.65;;;;;;;3.14;100.00;100480.72;5037183;28;20036;-75
2022/01/31 10:03:45;;;;;;;86.57;18.73;;;;;;;3.65;100.00;100617.72;5055376;28;20544;-75
2022/01/31 10:06:21;;;;;;;63.85;14.43;;;;;;;3.77;100.00;100580.44;5020854;28;20348;-74
2022/01/31 10:08:48;;;;;;;40.20;6.13;;;;;;;3.65;100.00;100626.41;5021595;28;20087;-74
2022/01/31 10:11:37;;;;;;;45.08;8.13;;;;;;;3.21;100.00;100506.44;5055712;28;20025;-76
2022/01/31 10:16:58;;;;;;;39.80;5.78;;;;;;;3.72;100.00;100626.88;5038557;28;20032;-75
2022/01/31 10:19:24;;;;;;;40.53;6.28;;;;;;;3.33;100.00;100597.03;5023330;28;20032;-74
2022/01/31 10:22:00;;;;;;;38.25;5.45;;;;;;;3.56;100.00;100632.19;5064668;28;20032;-74
2022/01/31 10:24:28;;;;;;;42.78;5.65;;;;;;;3.06;100.00;100553.38;5046203;28;20025;-75
2022/01/31 10:26:54;;;;;;;40.72;5.20;;;;;;;3.54;100.00;100634.91;5044788;28;20374;-74
2022/01/31 10:29:21;;;;;;;44.05;6.45;;;;;;;3.73;100.00;100646.84;5077906;28;20033;-76
2022/01/31 10:31:55;;;;;;;49.67;6.70;;;;;;;3.67;100.00;100653.25;5023901;28;20033;-76
2022/01/31 10:34:23;;;;;;;40.08;5.50;;;;;;;3.03;100.00;100540.53;5048204;28;20028;-75
2022/01/31 10:36:49;;;;;;;46.92;6.10;;;;;;;3.66;100.00;100662.03;5049134;28;20047;-75
2022/01/31 10:53:40;;;;;;;47.22;6.93;;;;;;;3.23;100.00;100655.94;5000527;28;20046;-74
2022/01/31 10:56:05;;;;;;;43.95;6.15;;;;;;;3.18;100.00;100617.06;5009929;28;20038;-74
2022/01/31 10:58:31;;;;;;;44.25;7.00;;;;;;;3.37;100.00;100671.59;4987194;28;20098;-75
2022/01/31 11:01:16;;;;;;;48.17;6.88;;;;;;;3.44;100.00;100706.03;4998224;28;20026;-75
2022/01/31 11:03:45;;;;;;;53.13;6.97;;;;;;;3.51;100.00;100709.94;4997402;28;20066;-75
2022/01/31 11:06:11;;;;;;;44.90;6.82;;;;;;;3.03;100.00;100618.78;4986389;28;20057;-75
2022/01/31 11:08:38;;;;;;;54.25;6.25;;;;;;;3.16;100.00;100660.66;5013161;28;20038;-75
2022/01/31 11:11:05;;;;;;;48.50;6.32;;;;;;;3.43;100.00;100699.09;4987658;28;20062;-75
2022/01/31 11:13:35;;;;;;;45.05;6.68;;;;;;;2.89;100.00;100642.22;4982185;28;20033;-76
2022/01/31 11:16:01;;;;;;;44.00;6.03;;;;;;;3.19;100.00;100673.53;4965711;28;20136;-75
2022/01/31 11:18:31;;;;;;;48.13;6.00;;;;;;;3.14;100.00;100667.72;4998522;28;20156;-75
2022/01/31 11:21:08;;;;;;;49.75;6.35;;;;;;;3.18;100.00;100632.72;5002313;28;20037;-74
2022/01/31 11:23:39;;;;;;;53.70;8.07;;;;;;;3.44;100.00;100721.69;5070744;28;20056;-74
2022/01/31 11:26:07;;;;;;;49.60;6.97;;;;;;;2.80;100.00;100612.28;5068754;28;20017;-75
2022/01/31 11:28:35;;;;;;;47.83;6.78;;;;;;;3.36;100.00;100711.66;5046543;28;20044;-77
2022/01/31 11:31:01;;;;;;;56.85;7.47;;;;;;;3.39;100.00;100716.72;5041256;28;20029;-75
2022/01/31 11:33:27;;;;;;;53.13;6.93;;;;;;;3.05;100.00;100655.22;5025437;28;20033;-75
2022/01/31 11:35:54;;;;;;;55.97;6.95;;;;;;;2.75;100.00;100600.44;5037703;28;20021;-74
2022/01/31 11:38:23;;;;;;;45.88;5.82;;;;;;;2.90;100.00;100643.91;5079184;28;20032;-76
2022/01/31 11:40:49;;;;;;;57.33;7.45;;;;;;;3.54;100.00;100738.47;5061666;28;20031;-75
2022/01/31 11:45:48;;;;;;;46.35;6.43;;;;;;;3.66;100.00;100745.59;5123020;22;20072;-76
2022/01/31 11:48:28;;;;;;;48.22;7.68;;;;;;;3.11;100.00;100670.50;5045251;28;20059;-73
2022/01/31 11:50:57;;;;;;;55.65;6.95;;;;;;;3.47;100.00;100738.00;5054803;28;20021;-74
2022/01/31 11:53:31;;;;;;;61.67;6.90;;;;;;;3.64;100.00;100738.81;5055961;28;20041;-75